createdAt,value
2022-12-13T00:02:06.942Z,101420.63
2022-12-13T00:12:45.577Z,101419.69
2022-12-13T00:15:16.334Z,101417.97
2022-12-13T00:17:48.646Z,101405.69
2022-12-13T00:20:18.859Z,101411.81
2022-12-13T00:22:48.680Z,101408.31
2022-12-13T00:25:20.077Z,101413.56
2022-12-13T00:27:49.000Z,101403.06
2022-12-13T00:30:19.858Z,101408.31
2022-12-13T00:32:48.581Z,101403.94
2022-12-13T00:35:17.828Z,101410.97
2022-12-13T00:37:46.986Z,101407.47
2022-12-13T00:40:16.310Z,101405.72
2022-12-13T00:42:45.057Z,101395.22
2022-12-13T00:45:14.352Z,101391.72
2022-12-13T00:47:44.921Z,101390.84
2022-12-13T00:50:14.162Z,101382.09
2022-12-13T00:52:43.091Z,101375.09
2022-12-13T00:55:12.518Z,101380.31
2022-12-13T00:57:42.136Z,101383.81
2022-12-13T01:00:12.490Z,101382.94
2022-12-13T01:02:43.684Z,101382.06
2022-12-13T01:05:15.694Z,101378.50
2022-12-13T01:07:48.976Z,101376.72
2022-12-13T01:10:17.982Z,101376.75
2022-12-13T01:12:49.476Z,101368.00
2022-12-13T01:15:18.691Z,101367.94
2022-12-13T01:17:50.415Z,101369.72
2022-12-13T01:20:20.655Z,101374.94
2022-12-13T01:22:49.420Z,101383.69
2022-12-13T01:25:18.128Z,101382.75
2022-12-13T01:27:46.952Z,101384.56
2022-12-13T01:30:16.107Z,101388.91
2022-12-13T01:32:44.824Z,101378.44
2022-12-13T01:35:14.247Z,101384.53
2022-12-13T01:37:46.825Z,101392.38
2022-12-13T01:40:16.207Z,101395.00
2022-12-13T01:42:45.532Z,101392.38
2022-12-13T01:45:26.252Z,101390.66
2022-12-13T01:48:00.162Z,101381.81
2022-12-13T01:50:34.161Z,101371.38
2022-12-13T01:53:08.476Z,101373.13
2022-12-13T01:55:41.476Z,101380.13
2022-12-13T01:58:11.703Z,101386.25
2022-12-13T02:00:41.412Z,101369.50
2022-12-13T02:03:21.179Z,101380.00
2022-12-13T02:06:00.749Z,101383.53
2022-12-13T02:08:35.737Z,101375.66
2022-12-13T02:11:07.262Z,101373.03
2022-12-13T02:13:36.062Z,101373.84
2022-12-13T02:16:22.849Z,101375.56
2022-12-13T02:19:15.130Z,101376.47
2022-12-13T02:21:54.848Z,101369.47
2022-12-13T02:24:57.848Z,101370.31
2022-12-13T02:28:03.741Z,101376.44
2022-12-13T02:31:00.167Z,101366.75
2022-12-13T02:33:43.610Z,101376.41
2022-12-13T02:36:19.226Z,101379.00
2022-12-13T02:38:58.068Z,101374.63
2022-12-13T02:41:34.513Z,101376.41
2022-12-13T02:44:21.691Z,101374.66
2022-12-13T02:47:01.796Z,101369.41
2022-12-13T02:49:34.717Z,101360.59
2022-12-13T02:52:08.329Z,101361.47
2022-12-13T02:54:38.904Z,101366.72
2022-12-13T02:57:36.712Z,101364.09
2022-12-13T03:00:09.742Z,101363.22
2022-12-13T03:03:00.745Z,101351.78
2022-12-13T03:06:02.738Z,101369.28
2022-12-13T03:08:49.147Z,101363.13
2022-12-13T03:11:22.205Z,101352.63
2022-12-13T03:13:54.855Z,101359.66
2022-12-13T03:16:34.557Z,101362.28
2022-12-13T03:19:09.218Z,101352.66
2022-12-13T03:21:47.034Z,101353.47
2022-12-13T03:24:19.549Z,101363.97
2022-12-13T03:26:51.150Z,101358.72
2022-12-13T03:29:24.611Z,101356.03
2022-12-13T03:31:54.367Z,101359.63
2022-12-13T03:34:24.432Z,101361.34
2022-12-13T03:36:53.971Z,101351.75
2022-12-13T03:39:24.412Z,101345.56
2022-12-13T03:41:53.629Z,101350.78
2022-12-13T03:44:24.644Z,101349.06
2022-12-13T03:47:00.824Z,101340.34
2022-12-13T03:49:35.325Z,101351.69
2022-12-13T03:52:04.760Z,101348.22
2022-12-13T03:54:33.449Z,101343.81
2022-12-13T03:57:02.730Z,101342.09
2022-12-13T03:59:31.803Z,101356.03
2022-12-13T04:02:00.720Z,101335.94
2022-12-13T04:04:31.784Z,101345.56
2022-12-13T04:07:00.842Z,101342.00
2022-12-13T04:09:29.767Z,101335.88
2022-12-13T04:12:16.352Z,101341.13
2022-12-13T04:14:45.191Z,101322.72
2022-12-13T04:17:14.108Z,101332.34
2022-12-13T04:19:44.389Z,101334.09
2022-12-13T04:22:12.810Z,101335.75
2022-12-13T04:24:41.517Z,101329.69
2022-12-13T04:27:10.383Z,101338.41
2022-12-13T04:29:38.952Z,101324.44
2022-12-13T04:32:26.542Z,101325.28
2022-12-13T04:35:01.023Z,101334.94
2022-12-13T04:37:30.576Z,101328.75
2022-12-13T04:40:00.699Z,101326.06
2022-12-13T04:42:30.233Z,101333.13
2022-12-13T04:44:59.352Z,101328.75
2022-12-13T04:47:28.870Z,101329.59
2022-12-13T04:49:59.370Z,101321.72
2022-12-13T04:52:28.361Z,101327.03
2022-12-13T04:54:57.521Z,101315.63
2022-12-13T04:57:26.232Z,101318.28
2022-12-13T04:59:55.674Z,101315.66
2022-12-13T05:02:24.544Z,101320.03
2022-12-13T05:04:54.182Z,101314.75
2022-12-13T05:07:25.017Z,101317.41
2022-12-13T05:09:53.672Z,101309.56
2022-12-13T05:12:27.777Z,101310.50
2022-12-13T05:14:57.094Z,101308.78
2022-12-13T05:17:25.696Z,101305.28
2022-12-13T05:20:02.209Z,101306.13
2022-12-13T05:22:35.624Z,101313.13
2022-12-13T05:25:08.918Z,101298.25
2022-12-13T05:27:38.263Z,101306.16
2022-12-13T05:30:08.877Z,101305.16
2022-12-13T05:32:43.543Z,101299.13
2022-12-13T05:35:14.599Z,101295.78
2022-12-13T05:37:53.250Z,101300.13
2022-12-13T05:40:26.604Z,101299.28
2022-12-13T05:43:00.822Z,101297.50
2022-12-13T05:45:32.492Z,101292.28
2022-12-13T05:48:02.971Z,101293.16
2022-12-13T05:50:38.257Z,101287.88
2022-12-13T05:53:10.107Z,101289.63
2022-12-13T05:55:42.378Z,101286.16
2022-12-13T05:58:15.716Z,101280.00
2022-12-13T06:00:52.267Z,101293.16
2022-12-13T06:03:25.216Z,101284.41
2022-12-13T06:05:58.758Z,101287.88
2022-12-13T06:08:33.819Z,101276.50
2022-12-13T06:11:11.616Z,101282.63
2022-12-13T06:13:45.783Z,101286.94
2022-12-13T06:16:24.462Z,101293.06
2022-12-13T06:19:03.757Z,101287.84
2022-12-13T06:21:41.629Z,101293.16
2022-12-13T06:24:21.653Z,101296.63
2022-12-13T06:26:51.716Z,101295.72
2022-12-13T06:29:25.476Z,101294.00
2022-12-13T06:32:03.642Z,101287.00
2022-12-13T06:34:37.355Z,101298.38
2022-12-13T06:37:11.086Z,101297.47
2022-12-13T06:39:43.138Z,101300.94
2022-12-13T06:42:22.014Z,101300.06
2022-12-13T06:44:55.787Z,101302.69
2022-12-13T06:47:32.032Z,101293.06
2022-12-13T06:50:04.941Z,101286.91
2022-12-13T06:52:39.402Z,101293.88
2022-12-13T06:55:11.297Z,101295.63
2022-12-13T06:57:42.140Z,101298.22
2022-12-13T07:00:21.691Z,101300.81
2022-12-13T07:02:55.529Z,101307.75
2022-12-13T07:05:25.217Z,101310.34
2022-12-13T07:07:56.192Z,101319.94
2022-12-13T07:10:27.966Z,101309.41
2022-12-13T07:12:56.984Z,101322.50
2022-12-13T07:15:26.878Z,101318.13
2022-12-13T07:17:59.752Z,101313.81
2022-12-13T07:20:31.338Z,101305.84
2022-12-13T07:23:02.735Z,101318.13
2022-12-13T07:25:37.628Z,101312.94
2022-12-13T07:28:09.407Z,101312.94
2022-12-13T07:30:41.975Z,101314.66
2022-12-13T07:33:11.668Z,101314.72
2022-12-13T07:35:40.976Z,101319.03
2022-12-13T07:38:12.615Z,101307.66
2022-12-13T07:40:43.955Z,101322.53
2022-12-13T07:43:16.374Z,101318.19
2022-12-13T07:45:46.475Z,101314.63
2022-12-13T07:48:15.981Z,101316.44
2022-12-13T07:50:45.574Z,101307.63
2022-12-13T07:53:24.080Z,101324.31
2022-12-13T07:55:55.017Z,101326.88
2022-12-13T07:58:24.311Z,101330.38
2022-12-13T08:00:55.689Z,101320.72
2022-12-13T08:03:34.240Z,101335.69
2022-12-13T08:06:05.050Z,101335.72
2022-12-13T08:08:35.171Z,101341.84
2022-12-13T08:11:09.450Z,101343.59
2022-12-13T08:13:43.290Z,101347.09
2022-12-13T08:16:27.679Z,101341.94
2022-12-13T08:19:01.847Z,101339.41
2022-12-13T08:21:55.192Z,101345.56
2022-12-13T08:24:27.517Z,101345.59
2022-12-13T08:27:01.602Z,101343.91
2022-12-13T08:29:34.401Z,101347.50
2022-12-13T08:32:05.758Z,101351.84
2022-12-13T08:34:34.740Z,101358.13
2022-12-13T08:37:04.710Z,101367.72
2022-12-13T08:39:36.142Z,101363.50
2022-12-13T08:42:15.770Z,101362.66
2022-12-13T08:44:47.310Z,101358.38
2022-12-13T08:47:24.803Z,101355.78
2022-12-13T08:50:01.439Z,101364.59
2022-12-13T08:52:39.855Z,101354.13
2022-12-13T08:55:11.530Z,101347.22
2022-12-13T08:57:43.176Z,101350.75
2022-12-13T09:00:17.081Z,101356.88
2022-12-13T09:02:47.291Z,101349.06
2022-12-13T09:05:34.351Z,101354.31
2022-12-13T09:08:13.330Z,101348.25
2022-12-13T09:10:59.617Z,101350.91
2022-12-13T09:13:32.847Z,101340.41
2022-12-13T09:16:14.023Z,101342.16
2022-12-13T09:18:43.417Z,101357.03
2022-12-13T09:21:22.010Z,101363.16
2022-12-13T09:23:51.238Z,101357.91
2022-12-13T09:26:25.562Z,101350.88
2022-12-13T09:28:56.830Z,101355.28
2022-12-13T09:31:41.104Z,101337.69
2022-12-13T09:34:11.023Z,101347.28
2022-12-13T09:36:40.367Z,101345.38
2022-12-13T09:39:09.506Z,101354.94
2022-12-13T09:41:42.170Z,101348.75
2022-12-13T09:44:31.013Z,101338.28
2022-12-13T09:47:13.506Z,101333.75
2022-12-13T09:49:52.724Z,101330.94
2022-12-13T09:52:33.488Z,101334.25
2022-12-13T09:55:10.629Z,101331.47
2022-12-13T09:57:40.335Z,101317.50
2022-12-13T10:00:18.229Z,101327.34
2022-12-13T10:02:49.510Z,101333.19
2022-12-13T10:05:33.694Z,101329.66
2022-12-13T10:08:09.173Z,101319.72
2022-12-13T10:10:38.064Z,101318.31
2022-12-13T10:13:17.912Z,101321.59
2022-12-13T10:15:53.350Z,101318.00
2022-12-13T10:18:34.547Z,101298.41
2022-12-13T10:21:09.050Z,101306.38
2022-12-13T10:24:15.169Z,101313.47
2022-12-13T10:26:27.464Z,101322.44
2022-12-13T10:29:06.163Z,101311.91
2022-12-13T10:31:45.142Z,101314.84
2022-12-13T10:34:24.902Z,101307.13
2022-12-13T10:36:59.800Z,101308.34
2022-12-13T10:39:39.953Z,101294.66
2022-12-13T10:42:23.458Z,101291.19
2022-12-13T10:45:15.592Z,101297.31
2022-12-13T10:47:47.433Z,101300.59
2022-12-13T10:50:27.632Z,101300.41
2022-12-13T10:52:58.076Z,101292.47
2022-12-13T10:55:32.121Z,101293.00
2022-12-13T10:58:07.571Z,101284.69
2022-12-13T11:00:49.448Z,101287.03
2022-12-13T11:03:35.149Z,101284.38
2022-12-13T11:06:06.087Z,101289.16
2022-12-13T11:08:35.351Z,101276.69
2022-12-13T11:11:06.586Z,101285.50
2022-12-13T11:13:41.677Z,101299.47
2022-12-13T11:16:36.020Z,101280.28
2022-12-13T11:19:12.618Z,101284.53
2022-12-13T11:21:41.634Z,101288.84
2022-12-13T11:24:10.664Z,101282.97
2022-12-13T11:26:43.182Z,101285.56
2022-12-13T11:29:51.726Z,101282.88
2022-12-13T11:32:34.946Z,101262.00
2022-12-13T11:35:16.232Z,101268.88
2022-12-13T11:37:56.733Z,101263.75
2022-12-13T11:40:29.593Z,101255.66
2022-12-13T11:43:08.203Z,101249.38
2022-12-13T11:45:42.531Z,101262.19
2022-12-13T11:48:21.862Z,101261.38
2022-12-13T11:50:56.909Z,101253.41
2022-12-13T11:53:32.874Z,101252.97
2022-12-13T11:56:10.068Z,101253.13
2022-12-13T11:59:06.652Z,101244.50
2022-12-13T12:01:43.255Z,101232.38
2022-12-13T12:04:22.824Z,101234.38
2022-12-13T12:07:24.598Z,101237.44
2022-12-13T12:10:00.368Z,101239.69
2022-12-13T12:12:35.103Z,101240.97
2022-12-13T12:15:15.412Z,101234.53
2022-12-13T12:17:45.945Z,101221.25
2022-12-13T12:20:23.726Z,101232.56
2022-12-13T12:23:09.201Z,101231.41
2022-12-13T12:25:48.436Z,101237.00
2022-12-13T12:28:36.132Z,101229.47
2022-12-13T12:31:25.782Z,101240.97
2022-12-13T12:34:05.794Z,101244.50
2022-12-13T12:36:53.640Z,101242.38
2022-12-13T12:39:44.598Z,101240.03
2022-12-13T12:43:15.443Z,101234.50
2022-12-13T12:46:04.790Z,101235.59
2022-12-13T12:49:10.901Z,101227.38
2022-12-13T12:51:50.161Z,101227.72
2022-12-13T12:54:40.958Z,101236.16
2022-12-13T12:57:22.620Z,101227.50
2022-12-13T13:00:04.215Z,101228.22
2022-12-13T13:02:41.465Z,101214.94
2022-12-13T13:05:20.161Z,101218.78
2022-12-13T13:07:56.990Z,101212.53
2022-12-13T13:10:29.419Z,101212.97
2022-12-13T13:13:12.242Z,101205.41
2022-12-13T13:15:57.641Z,101200.41
2022-12-13T13:18:50.879Z,101196.31
2022-12-13T13:21:47.228Z,101198.88
2022-12-13T13:24:28.169Z,101190.41
2022-12-13T13:27:20.686Z,101186.50
2022-12-13T13:29:49.710Z,101189.41
2022-12-13T13:32:33.627Z,101187.91
2022-12-13T13:35:50.551Z,101192.84
2022-12-13T13:38:52.898Z,101196.91
2022-12-13T13:42:10.226Z,101187.16
2022-12-13T13:45:19.460Z,101181.13
2022-12-13T13:48:26.572Z,101189.97
2022-12-13T13:52:16.291Z,101173.94
2022-12-13T13:55:17.794Z,101180.47
2022-12-13T13:58:29.380Z,101170.94
2022-12-13T14:01:53.791Z,101167.72
2022-12-13T14:05:10.903Z,101163.88
2022-12-13T14:08:20.637Z,101158.59
2022-12-13T14:11:02.235Z,101152.38
2022-12-13T14:14:38.756Z,101158.94
2022-12-13T14:17:53.365Z,101162.41
2022-12-13T14:20:54.312Z,101160.66
2022-12-13T14:23:40.414Z,101162.41
2022-12-13T14:26:36.516Z,101157.31
2022-12-13T14:29:17.518Z,101166.25
2022-12-13T14:31:49.749Z,101150.41
2022-12-13T14:34:24.712Z,101147.75
2022-12-13T14:37:04.057Z,101145.03
2022-12-13T14:39:35.910Z,101142.53
2022-12-13T14:42:26.688Z,101136.44
2022-12-13T14:44:57.966Z,101140.97
2022-12-13T14:47:27.788Z,101132.13
2022-12-13T14:49:57.962Z,101141.81
2022-12-13T14:52:31.220Z,101152.47
2022-12-13T14:55:05.978Z,101152.50
2022-12-13T14:57:37.160Z,101144.59
2022-12-13T15:00:29.206Z,101137.69
2022-12-13T15:03:01.791Z,101135.09
2022-12-13T15:05:35.087Z,101148.34
2022-12-13T15:08:10.289Z,101133.50
2022-12-13T15:10:48.038Z,101138.81
2022-12-13T15:13:31.795Z,101124.72
2022-12-13T15:16:10.413Z,101129.09
2022-12-13T15:18:40.807Z,101111.66
2022-12-13T15:21:28.122Z,101122.13
2022-12-13T15:24:02.630Z,101114.31
2022-12-13T15:26:36.757Z,101107.34
2022-12-13T15:29:10.952Z,101105.59
2022-12-13T15:31:42.972Z,101099.47
2022-12-13T15:34:39.459Z,101100.41
2022-12-13T15:37:28.886Z,101097.88
2022-12-13T15:40:07.467Z,101083.84
2022-12-13T15:42:40.138Z,101087.38
2022-12-13T15:45:22.772Z,101090.06
2022-12-13T15:47:56.581Z,101090.00
2022-12-13T15:50:43.783Z,101092.78
2022-12-13T15:53:27.951Z,101086.66
2022-12-13T15:55:57.452Z,101079.59
2022-12-13T15:58:31.871Z,101087.50
2022-12-13T16:01:05.780Z,101095.41
2022-12-13T16:03:45.119Z,101085.78
2022-12-13T16:06:22.209Z,101084.03
2022-12-13T16:08:54.043Z,101089.34
2022-12-13T16:11:31.050Z,101101.72
2022-12-13T16:14:34.550Z,101084.03
2022-12-13T16:17:09.211Z,101078.84
2022-12-13T16:19:40.198Z,101080.50
2022-12-13T16:22:09.933Z,101074.38
2022-12-13T16:24:45.046Z,101079.59
2022-12-13T16:27:14.244Z,101072.59
2022-12-13T16:29:43.766Z,101062.13
2022-12-13T16:32:12.817Z,101072.63
2022-12-13T16:34:43.580Z,101066.47
2022-12-13T16:37:26.397Z,101063.00
2022-12-13T16:39:57.789Z,101067.38
2022-12-13T16:42:30.066Z,101049.00
2022-12-13T16:45:39.576Z,101052.44
2022-12-13T16:47:49.969Z,101053.38
2022-12-13T16:50:24.570Z,101065.69
2022-12-13T16:52:54.541Z,101072.78
2022-12-13T16:55:24.065Z,101069.16
2022-12-13T16:58:01.163Z,101069.25
2022-12-13T17:00:31.463Z,101063.91
2022-12-13T17:03:01.710Z,101072.66
2022-12-13T17:05:34.677Z,101060.34
2022-12-13T17:08:06.179Z,101058.63
2022-12-13T17:10:35.018Z,101072.63
2022-12-13T17:13:05.524Z,101068.28
2022-12-13T17:18:24.072Z,101064.91
2022-12-13T17:20:58.173Z,101069.09
2022-12-13T17:23:43.424Z,101064.78
2022-12-13T17:26:17.010Z,101056.84
2022-12-13T17:28:49.888Z,101058.66
2022-12-13T17:31:19.763Z,101051.66
2022-12-13T17:33:49.316Z,101054.41
2022-12-13T17:36:20.963Z,101062.16
2022-12-13T17:38:53.966Z,101058.63
2022-12-13T17:41:23.040Z,101061.16
2022-12-13T17:43:52.367Z,101053.34
2022-12-13T17:46:22.008Z,101052.41
2022-12-13T17:48:53.096Z,101051.56
2022-12-13T17:51:25.716Z,101055.94
2022-12-13T17:53:57.940Z,101056.78
2022-12-13T17:56:27.307Z,101052.53
2022-12-13T17:58:56.390Z,101044.56
2022-12-13T18:01:27.144Z,101054.34
2022-12-13T18:04:00.180Z,101043.69
2022-12-13T18:06:32.266Z,101036.69
2022-12-13T18:09:01.737Z,101042.03
2022-12-13T18:11:33.422Z,101045.41
2022-12-13T18:14:05.368Z,101035.22
2022-12-13T18:16:37.888Z,101039.34
2022-12-13T18:19:18.916Z,101032.34
2022-12-13T18:21:49.846Z,101027.91
2022-12-13T18:24:27.286Z,101032.25
2022-12-13T18:26:57.790Z,101024.75
2022-12-13T18:29:28.090Z,101025.31
2022-12-13T18:31:57.091Z,101017.25
2022-12-13T18:34:28.434Z,101015.81
2022-12-13T18:36:58.971Z,101015.03
2022-12-13T18:39:28.516Z,101003.34
2022-12-13T18:41:57.693Z,101008.88
2022-12-13T18:44:26.891Z,100996.22
2022-12-13T18:46:56.924Z,101002.56
2022-12-13T18:49:29.086Z,100987.47
2022-12-13T18:52:03.933Z,100988.41
2022-12-13T18:54:37.821Z,100989.22
2022-12-13T18:57:12.647Z,100984.91
2022-12-13T18:59:41.978Z,100982.38
2022-12-13T19:02:31.159Z,100974.44
2022-12-13T19:05:10.455Z,100977.31
2022-12-13T19:07:48.060Z,100975.25
2022-12-13T19:10:23.185Z,100978.88
2022-12-13T19:12:59.837Z,100989.25
2022-12-13T19:22:07.499Z,100977.91
2022-12-13T19:24:43.755Z,100982.22
2022-12-13T19:27:14.990Z,100987.50
2022-12-13T19:30:01.000Z,100979.69
2022-12-13T19:32:36.073Z,100981.91
2022-12-13T19:35:06.469Z,100978.41
2022-12-13T19:37:41.281Z,100961.81
2022-12-13T19:40:23.565Z,100978.63
2022-12-13T19:42:54.448Z,100979.94
2022-12-13T19:45:25.700Z,100971.28
2022-12-13T19:48:00.916Z,100961.66
2022-12-13T19:50:40.344Z,100978.38
2022-12-13T19:56:12.354Z,100955.75
2022-12-13T19:58:58.635Z,100959.78
2022-12-13T20:01:40.299Z,100944.22
2022-12-13T20:04:22.530Z,100948.78
2022-12-13T20:07:07.190Z,100937.94
2022-12-13T20:09:48.065Z,100935.16
2022-12-13T20:12:41.317Z,100938.91
2022-12-13T20:15:42.597Z,100929.84
2022-12-13T20:18:41.193Z,100928.91
2022-12-13T20:21:22.582Z,100921.78
2022-12-13T20:24:08.493Z,100918.28
2022-12-13T20:26:42.551Z,100907.75
2022-12-13T20:29:17.594Z,100908.72
2022-12-13T20:31:48.699Z,100909.66
2022-12-13T20:34:20.496Z,100913.06
2022-12-13T20:37:01.394Z,100920.91
2022-12-13T20:39:31.470Z,100910.53
2022-12-13T20:42:04.475Z,100911.34
2022-12-13T20:44:50.341Z,100897.47
2022-12-13T20:47:21.692Z,100894.00
2022-12-13T20:49:59.440Z,100896.53
2022-12-13T20:52:30.500Z,100895.78
2022-12-13T20:55:10.446Z,100898.28
2022-12-13T20:57:45.023Z,100889.19
2022-12-13T21:03:08.071Z,100876.94
2022-12-13T21:05:56.941Z,100873.56
2022-12-13T21:08:45.690Z,100869.19
2022-12-13T21:11:32.536Z,100863.19
2022-12-13T21:14:10.216Z,100865.88
2022-12-13T21:16:58.757Z,100858.75
2022-12-13T21:19:50.940Z,100851.69
2022-12-13T21:22:24.908Z,100851.81
2022-12-13T21:24:59.249Z,100841.41
2022-12-13T21:30:31.090Z,100832.34
2022-12-13T21:33:11.314Z,100833.94
2022-12-13T21:36:06.159Z,100834.31
2022-12-13T21:38:56.008Z,100827.88
2022-12-13T21:45:02.278Z,100833.13
2022-12-13T21:47:31.476Z,100834.97
2022-12-13T21:50:00.164Z,100839.34
2022-12-13T21:52:30.719Z,100841.25
2022-12-13T21:55:37.935Z,100836.81
2022-12-13T21:58:14.446Z,100834.03
2022-12-13T22:00:45.937Z,100825.38
2022-12-13T22:03:18.305Z,100827.97
2022-12-13T22:05:47.744Z,100833.22
2022-12-13T22:08:17.222Z,100826.25
2022-12-13T22:11:03.461Z,100821.88
2022-12-13T22:13:34.991Z,100829.75
2022-12-13T22:16:11.278Z,100823.59
2022-12-13T22:18:41.090Z,100813.91
2022-12-13T22:21:10.392Z,100813.84
2022-12-13T22:23:39.826Z,100808.59
2022-12-13T22:26:08.820Z,100804.13
2022-12-13T22:28:42.150Z,100804.28
2022-12-13T22:31:12.632Z,100801.53
2022-12-13T22:33:41.139Z,100795.38
2022-12-13T22:36:13.023Z,100797.28
2022-12-13T22:38:43.969Z,100789.25
2022-12-13T22:41:16.186Z,100790.09
2022-12-13T22:43:46.368Z,100784.88
2022-12-13T22:46:23.407Z,100782.22
2022-12-13T22:48:53.841Z,100783.16
2022-12-13T22:51:24.470Z,100787.47
2022-12-13T22:53:58.232Z,100775.22
2022-12-13T22:56:31.024Z,100771.84
2022-12-13T22:59:03.558Z,100762.75
2022-12-13T23:01:37.495Z,100760.50
2022-12-13T23:04:08.358Z,100757.75
2022-12-13T23:06:41.641Z,100763.91
2022-12-13T23:09:14.588Z,100751.56
2022-12-13T23:12:01.661Z,100756.88
2022-12-13T23:14:34.178Z,100754.34
2022-12-13T23:17:05.848Z,100755.19
2022-12-13T23:19:50.827Z,100743.88
2022-12-13T23:22:23.273Z,100747.41
2022-12-13T23:24:54.772Z,100752.63
2022-12-13T23:27:26.005Z,100742.22
2022-12-13T23:29:57.137Z,100748.38
2022-12-13T23:32:29.136Z,100744.84
2022-12-13T23:34:59.161Z,100751.81
2022-12-13T23:37:28.263Z,100739.63
2022-12-13T23:39:57.481Z,100736.91
2022-12-13T23:42:25.988Z,100729.13
2022-12-13T23:44:56.185Z,100729.94
2022-12-13T23:47:31.679Z,100731.72
2022-12-13T23:50:00.577Z,100722.09
2022-12-13T23:52:29.491Z,100711.56
2022-12-13T23:54:58.264Z,100729.09
2022-12-13T23:57:26.981Z,100721.22
2022-12-13T23:59:57.090Z,100720.50
